Time;durP1;ratioP1;P1;durP2;ratioP2;P2;SDS_P1;SDS_P2;PMS_P1;PMS_P2;Temp;Humidity;BMP_temperature;BMP_pressure;BME280_temperature;BME280_humidity;BME280_pressure;Samples;Min_cycle;Max_cycle;Signal;HPM_P1;HPM_P2
2021/07/28 00:00:16;;;;;;;18.62;12.07;;;;;;;18.31;75.20;97086.27;1809251;78;25733;-87
2021/07/28 00:02:44;;;;;;;18.37;11.10;;;;;;;18.28;75.28;97077.23;1790847;78;26496;-85
2021/07/28 00:05:12;;;;;;;14.73;11.30;;;;;;;18.27;75.30;97083.25;1805364;78;26736;-86
2021/07/28 00:07:38;;;;;;;13.13;11.73;;;;;;;18.26;75.44;97082.14;1804849;77;26309;-88
2021/07/28 00:10:06;;;;;;;14.85;11.90;;;;;;;18.26;75.45;97074.77;1779230;78;26132;-86
2021/07/28 00:12:33;;;;;;;15.70;11.20;;;;;;;18.26;75.45;97077.50;1800231;78;26534;-87
2021/07/28 00:14:59;;;;;;;17.35;11.05;;;;;;;18.23;75.43;97076.66;1782551;79;26561;-86
2021/07/28 00:17:27;;;;;;;17.73;11.08;;;;;;;18.18;75.41;97077.20;1799152;77;27417;-85
2021/07/28 00:20:04;;;;;;;16.77;11.20;;;;;;;18.16;75.47;97070.64;1776893;78;25847;-85
2021/07/28 00:25:13;;;;;;;17.95;11.15;;;;;;;17.97;75.40;97070.85;1803764;78;25728;-87
2021/07/28 00:27:40;;;;;;;11.70;10.00;;;;;;;17.81;75.67;97075.41;1817178;78;25297;-86
2021/07/28 00:30:08;;;;;;;15.72;10.72;;;;;;;17.74;75.83;97068.55;1813996;77;27412;-85
2021/07/28 00:32:35;;;;;;;17.67;11.05;;;;;;;17.77;76.10;97060.64;1813818;78;25705;-84
2021/07/28 00:35:03;;;;;;;16.02;10.25;;;;;;;17.80;76.10;97058.75;1805549;77;25749;-85
2021/07/28 00:37:29;;;;;;;14.05;11.35;;;;;;;17.83;76.09;97068.32;1813055;78;25823;-85
2021/07/28 00:39:56;;;;;;;18.75;12.35;;;;;;;17.82;76.03;97073.50;1740669;80;25774;-85
2021/07/28 00:42:22;;;;;;;15.75;11.88;;;;;;;17.75;75.99;97067.47;1729206;80;27318;-86
2021/07/28 00:44:49;;;;;;;15.23;11.68;;;;;;;17.71;76.17;97069.08;1771006;79;25820;-84
2021/07/28 00:47:16;;;;;;;24.65;11.78;;;;;;;17.74;76.27;97063.09;1750710;80;25747;-85
2021/07/28 00:49:42;;;;;;;15.70;10.32;;;;;;;17.75;76.24;97062.80;1723891;80;25739;-83
2021/07/28 00:52:09;;;;;;;14.90;10.63;;;;;;;17.77;76.22;97058.45;1709571;82;25848;-84
2021/07/28 00:54:36;;;;;;;15.03;11.00;;;;;;;17.75;76.19;97054.61;1775824;79;27406;-87
2021/07/28 00:57:02;;;;;;;13.90;10.43;;;;;;;17.71;76.10;97049.97;1757216;79;25779;-85
2021/07/28 00:59:30;;;;;;;12.05;10.08;;;;;;;17.66;76.15;97044.47;1747080;80;25831;-86
2021/07/28 01:01:56;;;;;;;15.45;10.70;;;;;;;17.68;76.37;97049.13;1744268;80;25884;-84
2021/07/28 01:04:25;;;;;;;13.35;10.65;;;;;;;17.70;76.39;97051.05;1763480;80;25721;-87
2021/07/28 01:06:51;;;;;;;13.00;11.10;;;;;;;17.70;76.41;97049.69;1728585;80;28341;-84
2021/07/28 01:09:18;;;;;;;15.25;10.88;;;;;;;17.72;76.45;97046.16;1703595;81;25702;-86
2021/07/28 01:11:45;;;;;;;14.03;10.82;;;;;;;17.72;76.45;97037.97;1723682;80;25869;-83
2021/07/28 01:14:12;;;;;;;12.60;10.08;;;;;;;17.71;76.39;97040.42;1712193;81;25780;-84
2021/07/28 01:16:40;;;;;;;14.25;10.53;;;;;;;17.69;76.40;97042.05;1769035;79;25781;-84
2021/07/28 01:19:12;;;;;;;14.58;9.95;;;;;;;17.70;76.41;97037.41;1767928;78;27311;-86
2021/07/28 01:21:41;;;;;;;18.95;10.53;;;;;;;17.70;76.46;97036.04;1768218;78;35290;-87
2021/07/28 01:24:11;;;;;;;12.10;9.63;;;;;;;17.72;76.46;97037.97;1764983;79;25765;-86
2021/07/28 01:26:39;;;;;;;15.03;9.73;;;;;;;17.72;76.41;97038.79;1770331;79;25954;-87
2021/07/28 01:29:06;;;;;;;14.55;9.90;;;;;;;17.72;76.39;97037.97;1780220;79;25792;-83
2021/07/28 01:31:43;;;;;;;12.53;10.05;;;;;;;17.70;76.31;97030.58;1779905;79;28000;-86
2021/07/28 01:34:11;;;;;;;15.18;9.90;;;;;;;17.69;76.37;97033.03;1773210;80;25824;-86
2021/07/28 01:36:40;;;;;;;13.50;10.63;;;;;;;17.64;76.46;97025.62;1756341;79;25826;-88
2021/07/28 01:39:08;;;;;;;14.30;10.68;;;;;;;17.55;76.49;97024.47;1721121;81;26474;-84
2021/07/28 01:41:34;;;;;;;14.23;10.55;;;;;;;17.53;76.66;97019.81;1739527;80;25714;-85
2021/07/28 01:44:01;;;;;;;17.92;10.88;;;;;;;17.49;76.80;97028.27;1787351;79;28172;-84
2021/07/28 01:46:28;;;;;;;15.85;10.23;;;;;;;17.43;76.84;97024.67;1791215;79;25716;-86
2021/07/28 01:48:54;;;;;;;18.35;11.12;;;;;;;17.46;76.92;97018.70;1727518;82;25732;-84
2021/07/28 01:51:21;;;;;;;13.43;10.03;;;;;;;17.48;76.98;97019.26;1739177;80;26356;-85
2021/07/28 01:53:48;;;;;;;16.67;9.88;;;;;;;17.53;77.01;97031.55;1728109;82;25748;-83
2021/07/28 01:56:16;;;;;;;17.45;9.95;;;;;;;17.54;76.94;97027.73;1708663;82;27412;-86
2021/07/28 01:58:52;;;;;;;14.47;10.10;;;;;;;17.56;76.90;97026.94;1733686;80;25931;-84
2021/07/28 02:01:11;;;;;;;12.70;9.93;;;;;;;17.56;76.92;97016.02;1713849;81;26335;-87
2021/07/28 02:03:38;;;;;;;18.05;10.08;;;;;;;17.56;76.94;97013.83;1748785;79;26486;-86
2021/07/28 02:06:07;;;;;;;20.77;10.45;;;;;;;17.53;76.87;97018.45;1782750;79;25723;-85
2021/07/28 02:08:34;;;;;;;13.22;9.70;;;;;;;17.48;76.93;97009.70;1764721;79;27585;-83
2021/07/28 02:11:00;;;;;;;15.18;9.18;;;;;;;17.49;76.92;97007.27;1794242;79;25687;-83
2021/07/28 02:13:27;;;;;;;14.35;10.32;;;;;;;17.50;76.83;97011.63;1727859;80;25701;-84
2021/07/28 02:15:53;;;;;;;13.83;9.35;;;;;;;17.49;76.88;97004.53;1768678;78;26386;-84
2021/07/28 02:18:20;;;;;;;12.65;9.68;;;;;;;17.49;76.86;97004.53;1766321;79;25720;-84
2021/07/28 02:20:47;;;;;;;14.93;9.18;;;;;;;17.48;76.81;97005.62;1786378;79;27433;-84
2021/07/28 02:23:13;;;;;;;17.85;9.88;;;;;;;17.46;76.78;97014.60;1795545;79;25866;-83
2021/07/28 02:25:40;;;;;;;15.72;10.70;;;;;;;17.40;76.72;97015.64;1785704;79;25716;-85
2021/07/28 02:28:07;;;;;;;16.57;10.53;;;;;;;17.37;76.85;97014.83;1794684;79;25751;-85
2021/07/28 02:30:34;;;;;;;16.62;9.60;;;;;;;17.37;76.90;97012.10;1780910;78;26279;-83
2021/07/28 02:33:00;;;;;;;14.58;9.28;;;;;;;17.33;76.90;97012.34;1817156;77;27356;-85
2021/07/28 02:35:27;;;;;;;13.95;9.58;;;;;;;17.29;76.93;97013.94;1795565;78;25695;-83
2021/07/28 02:37:53;;;;;;;13.28;9.70;;;;;;;17.26;76.99;97008.50;1799139;78;26565;-83
2021/07/28 02:40:21;;;;;;;13.08;8.90;;;;;;;17.27;76.99;97012.02;1797561;77;25778;-86
2021/07/28 02:42:49;;;;;;;15.18;9.55;;;;;;;17.26;76.98;97008.50;1798828;77;25269;-83
2021/07/28 02:45:16;;;;;;;14.00;10.18;;;;;;;17.25;76.94;97010.94;1764189;79;27375;-85
2021/07/28 02:47:43;;;;;;;12.47;9.30;;;;;;;17.23;76.93;97016.38;1781296;79;25755;-85
2021/07/28 02:50:10;;;;;;;9.60;8.53;;;;;;;17.16;76.96;97015.77;1731630;81;26475;-85
2021/07/28 02:52:37;;;;;;;14.00;10.13;;;;;;;17.14;77.09;97013.87;1780295;79;25698;-83
2021/07/28 02:55:05;;;;;;;15.55;9.30;;;;;;;17.13;77.19;97019.04;1745753;80;26428;-86
2021/07/28 02:57:34;;;;;;;10.70;9.30;;;;;;;17.11;77.25;97023.93;1811704;77;27396;-85
2021/07/28 03:00:01;;;;;;;14.75;10.43;;;;;;;17.12;77.34;97022.84;1815196;77;25841;-87
2021/07/28 03:02:28;;;;;;;12.65;10.05;;;;;;;17.11;77.33;97023.93;1816888;78;25347;-85
2021/07/28 03:04:55;;;;;;;14.25;10.28;;;;;;;17.10;77.39;97023.64;1809567;77;26685;-86
2021/07/28 03:07:21;;;;;;;10.75;9.65;;;;;;;17.10;77.43;97025.01;1778431;79;25767;-86
2021/07/28 03:09:48;;;;;;;14.70;10.05;;;;;;;17.11;77.42;97025.29;1758397;80;27397;-86
2021/07/28 03:12:15;;;;;;;14.47;10.32;;;;;;;17.07;77.35;97024.16;1759082;80;26506;-83
2021/07/28 03:14:42;;;;;;;13.08;10.00;;;;;;;17.00;77.45;97018.13;1740944;80;25782;-86
2021/07/28 03:17:08;;;;;;;14.60;9.68;;;;;;;16.99;77.61;97021.39;1787815;79;25867;-82
2021/07/28 03:19:35;;;;;;;20.77;9.65;;;;;;;17.03;77.67;97016.22;1779258;79;25730;-82
2021/07/28 03:22:01;;;;;;;12.90;9.25;;;;;;;17.03;77.71;97010.77;1766273;79;27395;-84
2021/07/28 03:24:28;;;;;;;15.55;9.53;;;;;;;17.05;77.72;97012.15;1785099;78;25765;-83
2021/07/28 03:26:56;;;;;;;12.85;9.98;;;;;;;17.06;77.72;97015.16;1793685;78;25706;-84
2021/07/28 03:29:23;;;;;;;15.43;10.15;;;;;;;17.06;77.73;97020.61;1798359;78;25688;-83
2021/07/28 03:31:50;;;;;;;13.30;9.30;;;;;;;17.08;77.73;97013.53;1776230;79;25866;-83
2021/07/28 03:34:17;;;;;;;14.65;8.73;;;;;;;17.09;77.75;97010.55;1770153;79;27224;-83
2021/07/28 03:36:43;;;;;;;10.65;9.55;;;;;;;17.10;77.65;97012.20;1791421;79;25959;-84
2021/07/28 03:39:10;;;;;;;13.18;9.00;;;;;;;17.10;77.60;97005.92;1764144;79;25886;-84
2021/07/28 03:41:37;;;;;;;12.10;9.28;;;;;;;17.07;77.60;97003.71;1763127;79;25989;-86
2021/07/28 03:44:04;;;;;;;13.25;9.98;;;;;;;17.08;77.64;97002.62;1780386;79;26547;-84
2021/07/28 03:46:30;;;;;;;12.45;9.20;;;;;;;17.08;77.67;97002.62;1776637;79;27348;-84
2021/07/28 03:48:57;;;;;;;17.45;9.65;;;;;;;17.05;77.74;96997.69;1771164;79;25684;-84
2021/07/28 03:51:23;;;;;;;13.68;9.70;;;;;;;17.05;77.82;97001.24;1764818;79;26316;-83
2021/07/28 03:53:50;;;;;;;15.53;10.35;;;;;;;17.06;77.86;97002.06;1779495;79;25784;-87
2021/07/28 03:56:22;;;;;;;14.78;9.98;;;;;;;17.07;77.89;97006.44;1774948;79;25780;-85
2021/07/28 03:58:45;;;;;;;18.10;10.00;;;;;;;17.08;77.96;97003.99;1767333;79;27581;-86
2021/07/28 04:01:11;;;;;;;14.87;9.43;;;;;;;17.09;77.92;97001.55;1767995;79;25820;-84
2021/07/28 04:03:38;;;;;;;11.00;9.00;;;;;;;17.10;77.87;96997.73;1774920;78;25800;-84
2021/07/28 04:06:05;;;;;;;11.18;9.08;;;;;;;17.10;77.91;96996.38;1779454;79;25917;-82
2021/07/28 04:08:31;;;;;;;14.95;9.48;;;;;;;17.11;77.96;96991.20;1790527;78;25826;-83
2021/07/28 04:10:58;;;;;;;15.93;9.98;;;;;;;17.13;78.01;96989.86;1768048;79;28154;-82
2021/07/28 04:13:25;;;;;;;16.82;11.20;;;;;;;17.17;78.13;96987.41;1772523;79;25725;-81
2021/07/28 04:15:51;;;;;;;16.87;11.75;;;;;;;17.19;78.10;96991.52;1796345;78;25736;-86
2021/07/28 04:18:18;;;;;;;17.95;12.25;;;;;;;17.27;78.18;96995.65;1746819;81;25709;-83
2021/07/28 04:20:45;;;;;;;17.98;11.15;;;;;;;17.31;78.21;96984.50;1783210;79;25676;-87
2021/07/28 04:23:11;;;;;;;16.25;11.50;;;;;;;17.35;78.26;96977.44;1746603;81;28430;-87
2021/07/28 04:25:38;;;;;;;17.62;11.83;;;;;;;17.41;78.32;96979.09;1759891;80;25841;-83
2021/07/28 04:28:05;;;;;;;22.73;11.90;;;;;;;17.47;78.32;96982.14;1731656;81;25848;-83
2021/07/28 04:30:32;;;;;;;17.07;10.88;;;;;;;17.52;78.35;96980.78;1709959;81;25674;-86
2021/07/28 04:32:59;;;;;;;18.77;11.28;;;;;;;17.53;78.39;96980.24;1740097;82;25736;-83
2021/07/28 04:35:26;;;;;;;14.78;10.35;;;;;;;17.55;78.35;96970.70;1736894;80;27205;-83
2021/07/28 04:37:53;;;;;;;13.53;10.82;;;;;;;17.59;78.45;96965.00;1726922;82;25810;-84
2021/07/28 04:40:20;;;;;;;13.18;9.98;;;;;;;17.63;78.48;96963.40;1742734;80;26375;-86
2021/07/28 04:42:46;;;;;;;14.50;11.25;;;;;;;17.67;78.53;96961.51;1743584;79;26275;-84
2021/07/28 04:45:14;;;;;;;17.57;11.12;;;;;;;17.74;78.56;96965.65;1805725;78;25739;-84
2021/07/28 04:47:41;;;;;;;17.05;12.30;;;;;;;17.78;78.55;96953.08;1754293;80;27469;-84
2021/07/28 04:50:09;;;;;;;16.02;11.25;;;;;;;17.83;78.63;96957.75;1777298;78;26117;-83
2021/07/28 04:52:35;;;;;;;14.15;11.55;;;;;;;17.89;78.67;96944.37;1780044;79;25747;-87
2021/07/28 04:55:03;;;;;;;22.52;13.62;;;;;;;17.94;78.57;96950.69;1788530;79;25727;-83
2021/07/28 04:57:29;;;;;;;19.95;12.15;;;;;;;17.98;78.55;96944.97;1769325;79;25853;-85
2021/07/28 04:59:56;;;;;;;16.02;11.80;;;;;;;18.04;78.57;96943.06;1730750;81;27440;-86
2021/07/28 05:02:25;;;;;;;18.25;12.13;;;;;;;18.07;78.48;96937.06;1784545;79;25807;-85
2021/07/28 05:04:51;;;;;;;17.65;11.80;;;;;;;18.12;78.43;96942.52;1752155;79;25746;-86
2021/07/28 05:07:18;;;;;;;16.55;11.65;;;;;;;18.17;78.44;96941.17;1710294;82;25767;-84
2021/07/28 05:09:45;;;;;;;15.95;12.13;;;;;;;18.22;78.39;96948.02;1738377;79;25874;-86
2021/07/28 05:12:12;;;;;;;17.23;12.23;;;;;;;18.28;78.41;96944.73;1773066;79;28097;-84
2021/07/28 05:14:38;;;;;;;21.25;11.88;;;;;;;18.33;78.49;96944.20;1757344;80;25659;-86
2021/07/28 05:17:05;;;;;;;19.25;12.45;;;;;;;18.39;78.57;96940.92;1764467;80;25724;-84
2021/07/28 05:19:32;;;;;;;17.27;13.08;;;;;;;18.43;78.61;96937.10;1742633;81;25761;-85
2021/07/28 05:21:59;;;;;;;17.90;11.93;;;;;;;18.48;78.57;96935.17;1721137;81;25723;-84
2021/07/28 05:24:25;;;;;;;16.55;11.63;;;;;;;18.56;78.58;96931.09;1710616;80;27406;-84
2021/07/28 05:26:52;;;;;;;16.42;11.85;;;;;;;18.61;78.61;96939.31;1709654;80;25683;-85
2021/07/28 05:29:20;;;;;;;24.15;12.78;;;;;;;18.67;78.59;96927.30;1740518;80;25809;-85
2021/07/28 05:31:46;;;;;;;17.67;13.15;;;;;;;18.72;78.60;96924.54;1742429;81;25817;-85
2021/07/28 05:34:13;;;;;;;25.05;12.40;;;;;;;18.77;78.56;96928.65;1742473;80;25728;-84
2021/07/28 05:36:40;;;;;;;17.77;13.18;;;;;;;18.84;78.58;96924.25;1721949;80;27620;-85
2021/07/28 05:39:06;;;;;;;22.07;14.23;;;;;;;18.90;78.64;96914.41;1743109;81;26453;-85
2021/07/28 05:41:33;;;;;;;19.15;12.55;;;;;;;18.95;78.61;96914.97;1722484;80;25922;-86
2021/07/28 05:43:59;;;;;;;19.87;13.03;;;;;;;19.00;78.64;96919.86;1738243;81;25901;-85
2021/07/28 05:46:26;;;;;;;26.87;14.38;;;;;;;19.04;78.58;96914.12;1733985;81;25843;-85
2021/07/28 05:48:52;;;;;;;23.12;13.35;;;;;;;19.11;78.56;96912.99;1812664;77;27468;-85
2021/07/28 05:51:19;;;;;;;21.50;13.48;;;;;;;19.16;78.50;96910.25;1804709;77;25355;-85
2021/07/28 05:53:46;;;;;;;21.85;13.95;;;;;;;19.21;78.43;96910.22;1766262;80;26462;-85
2021/07/28 05:56:12;;;;;;;20.52;12.98;;;;;;;19.27;78.39;96910.49;1772857;79;26524;-85
2021/07/28 05:58:39;;;;;;;23.83;12.40;;;;;;;19.34;78.42;96912.38;1752880;79;25847;-84
2021/07/28 06:01:05;;;;;;;20.27;12.65;;;;;;;19.40;78.31;96915.38;1782107;79;27403;-84
2021/07/28 06:03:32;;;;;;;19.20;12.85;;;;;;;19.47;78.19;96914.52;1810587;77;25973;-85
2021/07/28 06:06:03;;;;;;;18.40;12.03;;;;;;;19.54;78.06;96915.08;1794476;78;26312;-86
2021/07/28 06:08:27;;;;;;;18.35;12.60;;;;;;;19.59;77.99;96912.30;1808454;77;26599;-83
2021/07/28 06:10:53;;;;;;;19.82;12.60;;;;;;;19.66;78.04;96915.58;1790770;79;25664;-83
2021/07/28 06:13:20;;;;;;;18.73;11.75;;;;;;;19.74;77.94;96917.72;1771490;78;27298;-85
2021/07/28 06:15:48;;;;;;;21.27;12.35;;;;;;;19.82;77.88;96910.00;1742980;81;25739;-84
2021/07/28 06:18:15;;;;;;;22.35;11.50;;;;;;;19.89;77.79;96911.90;1763435;79;25728;-86
2021/07/28 06:20:42;;;;;;;17.27;11.93;;;;;;;19.96;77.67;96908.28;1742995;81;26696;-83
2021/07/28 06:23:09;;;;;;;14.75;11.70;;;;;;;20.05;77.59;96909.31;1770190;79;25652;-85
2021/07/28 06:25:35;;;;;;;13.75;11.48;;;;;;;20.14;77.46;96907.63;1749717;80;28128;-87
2021/07/28 06:28:02;;;;;;;19.17;11.70;;;;;;;20.23;77.31;96903.17;1726924;80;25740;-88
2021/07/28 06:30:29;;;;;;;15.90;11.50;;;;;;;20.32;77.30;96901.45;1745977;80;25292;-86
2021/07/28 06:32:55;;;;;;;20.45;11.40;;;;;;;20.41;77.25;96905.25;1775413;78;25791;-88
2021/07/28 06:35:22;;;;;;;12.80;10.40;;;;;;;20.52;77.21;96905.19;1760544;79;25640;-87
2021/07/28 06:37:49;;;;;;;13.48;11.05;;;;;;;20.60;76.93;96894.97;1793846;79;28174;-87
2021/07/28 06:40:15;;;;;;;11.88;10.65;;;;;;;20.68;76.79;96897.90;1744457;80;25676;-88
2021/07/28 06:42:42;;;;;;;14.60;9.98;;;;;;;20.79;76.89;96902.73;1765732;79;25733;-89
2021/07/28 06:45:09;;;;;;;14.58;10.95;;;;;;;20.90;76.87;96902.90;1746785;81;26851;-87
2021/07/28 06:47:36;;;;;;;13.35;10.35;;;;;;;20.99;76.99;96902.55;1773107;80;25712;-89
2021/07/28 06:50:03;;;;;;;17.10;10.55;;;;;;;21.07;76.88;96890.94;1796355;77;26977;-89
2021/07/28 06:52:29;;;;;;;14.53;9.75;;;;;;;21.18;76.90;96893.02;1814834;77;25908;-87
2021/07/28 06:54:56;;;;;;;12.33;10.63;;;;;;;21.29;76.35;96892.37;1809499;77;25667;-87
2021/07/28 06:57:23;;;;;;;17.87;9.88;;;;;;;21.38;76.19;96887.86;1737682;80;25768;-87
2021/07/28 06:59:50;;;;;;;13.00;9.58;;;;;;;21.48;76.32;96883.64;1738146;80;25770;-87
2021/07/28 07:02:17;;;;;;;14.53;11.53;;;;;;;21.59;76.33;96889.27;1770521;79;28625;-87
2021/07/28 07:04:43;;;;;;;14.70;9.98;;;;;;;21.68;76.38;96887.49;1778723;79;25973;-89
2021/07/28 07:07:10;;;;;;;13.83;9.83;;;;;;;21.79;76.44;96882.67;1791678;80;25681;-86
2021/07/28 07:09:37;;;;;;;14.68;10.18;;;;;;;21.88;76.20;96878.97;1764133;80;25708;-88
2021/07/28 07:12:03;;;;;;;12.53;10.05;;;;;;;21.98;76.08;96875.84;1739740;80;25673;-86
2021/07/28 07:14:30;;;;;;;14.45;10.05;;;;;;;22.06;75.97;96876.56;1777277;79;28165;-87
2021/07/28 07:16:58;;;;;;;10.25;9.20;;;;;;;22.16;75.61;96870.91;1780417;77;26327;-86
2021/07/28 07:19:25;;;;;;;16.20;9.73;;;;;;;22.24;75.21;96871.59;1804782;77;26346;-87
2021/07/28 07:21:52;;;;;;;13.38;9.93;;;;;;;22.34;74.84;96867.30;1778241;79;25962;-86
2021/07/28 07:24:18;;;;;;;14.10;9.08;;;;;;;22.59;74.91;96856.44;1784017;78;25917;-87
2021/07/28 07:26:46;;;;;;;15.00;9.25;;;;;;;22.59;74.91;96856.44;1772943;78;27370;-90
2021/07/28 07:29:13;;;;;;;14.65;9.08;;;;;;;22.69;74.75;96859.59;1752745;79;25811;-87
2021/07/28 07:31:41;;;;;;;13.20;9.63;;;;;;;22.71;74.32;96843.02;1757499;79;25828;-86
2021/07/28 07:34:08;;;;;;;12.25;9.13;;;;;;;22.90;73.92;96853.45;1753295;79;26279;-87
2021/07/28 07:36:35;;;;;;;17.37;9.50;;;;;;;23.02;73.44;96854.33;1743320;80;25659;-86
2021/07/28 07:39:03;;;;;;;14.87;8.78;;;;;;;23.18;73.58;96850.73;1811120;78;27409;-87
2021/07/28 07:41:31;;;;;;;13.18;8.75;;;;;;;23.31;73.25;96852.08;1737136;80;25972;-88
2021/07/28 07:43:59;;;;;;;11.33;8.55;;;;;;;23.44;73.05;96843.55;1746026;80;25677;-88
2021/07/28 07:46:27;;;;;;;13.35;8.75;;;;;;;23.64;72.57;96847.88;1803976;77;25724;-91
2021/07/28 07:48:56;;;;;;;11.70;9.68;;;;;;;23.91;72.06;96839.52;1740756;80;25806;-85
2021/07/28 07:51:28;;;;;;;10.95;8.58;;;;;;;24.24;71.79;96838.80;1777660;79;27401;-88
2021/07/28 07:53:52;;;;;;;14.20;8.00;;;;;;;24.65;71.21;96842.72;1727239;80;25925;-90
2021/07/28 07:56:19;;;;;;;11.20;7.67;;;;;;;25.07;70.68;96841.36;1731895;80;26238;-87
2021/07/28 07:58:46;;;;;;;11.53;8.00;;;;;;;25.49;70.28;96835.73;1775445;79;25790;-91
2021/07/28 08:01:13;;;;;;;12.20;7.62;;;;;;;25.90;69.62;96834.55;1762534;79;25708;-88
2021/07/28 08:03:41;;;;;;;10.15;6.58;;;;;;;26.33;68.69;96830.43;1770360;79;27386;-90
2021/07/28 08:06:09;;;;;;;12.00;7.20;;;;;;;26.76;68.19;96823.45;1734044;79;25776;-88
2021/07/28 08:08:38;;;;;;;15.53;7.58;;;;;;;27.20;67.49;96822.19;1711404;81;26669;-89
2021/07/28 08:11:13;;;;;;;11.38;6.65;;;;;;;27.59;66.54;96816.89;1755637;80;26673;-90
2021/07/28 08:13:40;;;;;;;8.33;6.72;;;;;;;27.90;65.63;96815.69;1754658;79;25972;-90
2021/07/28 08:16:14;;;;;;;10.08;6.83;;;;;;;28.13;64.54;96817.02;1755581;79;27461;-89
2021/07/28 08:18:41;;;;;;;11.55;6.60;;;;;;;28.47;64.15;96817.88;1782002;79;25777;-90
2021/07/28 08:21:09;;;;;;;10.70;6.42;;;;;;;28.84;64.00;96808.55;1787069;79;25739;-89
2021/07/28 08:23:40;;;;;;;13.60;6.58;;;;;;;29.19;63.55;96816.47;1765927;79;26507;-89
2021/07/28 08:26:07;;;;;;;15.78;6.83;;;;;;;29.51;62.76;96817.55;1742246;80;25753;-90
2021/07/28 08:28:35;;;;;;;10.75;6.25;;;;;;;29.77;61.36;96814.41;1769410;79;27419;-91
2021/07/28 08:31:01;;;;;;;10.25;6.58;;;;;;;29.99;60.86;96819.49;1762841;79;25753;-90
2021/07/28 08:33:28;;;;;;;12.18;6.00;;;;;;;30.21;59.92;96814.79;1750941;79;26315;-87
2021/07/28 08:35:57;;;;;;;9.38;5.95;;;;;;;30.51;59.49;96815.86;1746565;79;25703;-89
2021/07/28 08:38:25;;;;;;;8.93;5.53;;;;;;;30.77;58.50;96808.69;1795517;78;25707;-86
2021/07/28 08:41:03;;;;;;;13.62;6.05;;;;;;;30.89;57.16;96805.02;1780896;79;27598;-90
2021/07/28 08:43:33;;;;;;;12.07;6.08;;;;;;;31.13;56.52;96808.26;1789657;78;25905;-92
2021/07/28 08:46:04;;;;;;;10.25;5.80;;;;;;;31.31;55.37;96806.72;1809605;77;25660;-91
2021/07/28 08:48:31;;;;;;;11.40;5.78;;;;;;;31.56;54.69;96805.94;1810779;77;25731;-91
2021/07/28 08:51:00;;;;;;;12.13;5.67;;;;;;;31.77;53.75;96806.46;1759023;80;25754;-93
2021/07/28 08:53:28;;;;;;;11.12;5.95;;;;;;;31.85;52.81;96813.84;1778849;79;27416;-91
2021/07/28 08:55:57;;;;;;;10.15;5.35;;;;;;;31.99;51.94;96803.59;1806579;78;25263;-90
2021/07/28 08:58:25;;;;;;;11.40;5.40;;;;;;;32.13;51.43;96808.66;1786881;77;25294;-90
2021/07/28 09:00:53;;;;;;;11.97;5.17;;;;;;;32.36;50.85;96802.63;1781345;79;25736;-89
2021/07/28 09:03:20;;;;;;;10.65;5.40;;;;;;;32.49;50.48;96798.48;1784482;78;25669;-93
2021/07/28 09:05:55;;;;;;;8.70;5.20;;;;;;;32.77;49.69;96803.05;1778538;77;27399;-86
2021/07/28 09:08:28;;;;;;;10.32;5.40;;;;;;;32.93;48.92;96806.56;1767509;79;25834;-92
2021/07/28 09:11:03;;;;;;;8.50;4.75;;;;;;;33.06;48.35;96799.62;1777906;78;25303;-94
2021/07/28 09:13:42;;;;;;;14.70;5.60;;;;;;;33.24;47.67;96800.76;1724517;81;25839;-93
2021/07/28 09:16:17;;;;;;;10.78;5.17;;;;;;;33.38;47.21;96798.80;1750989;80;25660;-89
2021/07/28 09:18:51;;;;;;;9.53;5.20;;;;;;;33.48;46.58;96801.55;1754436;80;27399;-92
2021/07/28 09:21:23;;;;;;;14.93;5.50;;;;;;;33.49;46.71;96801.17;1770804;80;25690;-90
2021/07/28 09:23:57;;;;;;;9.93;5.00;;;;;;;33.60;46.03;96802.16;1768014;80;25661;-92
2021/07/28 09:26:36;;;;;;;6.67;4.55;;;;;;;33.70;45.70;96803.49;1765134;79;25730;-84
2021/07/28 09:29:19;;;;;;;13.75;5.97;;;;;;;33.73;44.78;96810.34;1762979;79;25828;-89
2021/07/28 09:31:50;;;;;;;12.47;5.92;;;;;;;33.65;44.51;96801.63;1780023;78;27429;-88
2021/07/28 09:34:26;;;;;;;8.70;4.80;;;;;;;33.51;43.79;96796.61;1794049;77;25727;-86
2021/07/28 09:36:55;;;;;;;12.58;5.60;;;;;;;33.51;42.56;96798.81;1802420;77;25755;-87
2021/07/28 09:39:35;;;;;;;9.95;5.37;;;;;;;33.38;43.38;96794.59;1763145;80;25802;-89
2021/07/28 09:42:13;;;;;;;9.00;5.12;;;;;;;33.37;43.41;96792.17;1787200;77;25320;-88
2021/07/28 09:44:43;;;;;;;13.38;5.17;;;;;;;33.35;43.23;96788.94;1792499;78;27405;-88
2021/07/28 09:47:16;;;;;;;15.60;5.97;;;;;;;33.52;43.14;96794.03;1802855;78;25687;-91
2021/07/28 09:49:46;;;;;;;13.58;5.58;;;;;;;33.63;42.87;96789.41;1782395;79;25791;-84
2021/07/28 09:52:19;;;;;;;15.78;5.85;;;;;;;33.69;42.79;96787.91;1772293;79;26792;-89
2021/07/28 09:54:51;;;;;;;11.15;5.30;;;;;;;33.68;42.39;96787.70;1765259;79;25723;-88
2021/07/28 09:57:20;;;;;;;12.43;5.65;;;;;;;33.32;42.07;96791.11;1779144;79;27036;-85
2021/07/28 09:59:58;;;;;;;10.85;5.85;;;;;;;33.16;41.97;96793.41;1717219;82;25868;-90
2021/07/28 10:02:25;;;;;;;12.33;5.35;;;;;;;33.07;42.00;96787.26;1715147;82;25782;-88
2021/07/28 10:04:54;;;;;;;12.07;5.30;;;;;;;33.11;41.74;96782.52;1743026;81;25900;-89
2021/07/28 10:07:23;;;;;;;11.55;5.70;;;;;;;33.06;41.76;96781.45;1773855;79;26402;-91
2021/07/28 10:09:57;;;;;;;13.78;5.62;;;;;;;32.82;41.46;96784.01;1762553;79;27426;-90
2021/07/28 10:12:25;;;;;;;13.93;6.00;;;;;;;32.50;41.65;96780.55;1746063;79;25397;-89
2021/07/28 10:14:53;;;;;;;12.68;5.55;;;;;;;32.40;42.05;96775.56;1793195;77;26349;-92
2021/07/28 10:17:21;;;;;;;15.75;6.03;;;;;;;32.40;42.28;96772.77;1743907;80;26534;-95
2021/07/28 10:19:51;;;;;;;13.48;5.92;;;;;;;32.26;41.82;96778.64;1782604;79;25713;-85
2021/07/28 10:22:19;;;;;;;13.32;6.08;;;;;;;31.98;42.00;96781.05;1723286;82;27549;-88
2021/07/28 10:24:47;;;;;;;19.02;5.30;;;;;;;31.70;42.24;96775.62;1768943;79;25841;-89
2021/07/28 10:27:16;;;;;;;14.78;5.50;;;;;;;31.67;42.29;96767.16;1810781;77;25766;-93
2021/07/28 10:29:43;;;;;;;13.62;4.92;;;;;;;31.65;42.22;96764.73;1794676;77;25722;-91
2021/07/28 10:32:32;;;;;;;13.08;5.25;;;;;;;31.81;41.77;96772.48;1768415;79;25301;-87
2021/07/28 10:35:24;;;;;;;11.00;4.62;;;;;;;32.05;41.46;96755.25;1778844;77;28649;-86
2021/07/28 10:38:01;;;;;;;10.88;5.03;;;;;;;32.34;41.51;96761.69;1771278;78;25738;-92
2021/07/28 10:40:32;;;;;;;10.50;4.70;;;;;;;32.65;41.09;96757.89;1795625;77;26354;-91
2021/07/28 10:43:03;;;;;;;10.85;5.20;;;;;;;32.79;40.96;96754.00;1787806;77;26657;-91
2021/07/28 10:45:56;;;;;;;16.47;5.23;;;;;;;32.94;40.68;96752.87;1784899;77;25784;-87
2021/07/28 10:48:45;;;;;;;9.83;5.10;;;;;;;33.08;40.81;96744.73;1800345;77;27592;-91
2021/07/28 10:51:36;;;;;;;11.15;4.47;;;;;;;33.25;40.32;96746.44;1797975;77;26374;-88
2021/07/28 10:54:03;;;;;;;10.68;4.87;;;;;;;33.24;39.04;96744.83;1785730;78;25676;-91
2021/07/28 10:56:30;;;;;;;11.63;4.78;;;;;;;33.26;39.21;96746.66;1787541;78;26989;-89
2021/07/28 10:58:56;;;;;;;9.58;4.70;;;;;;;33.32;39.00;96747.75;1799836;77;25595;-87
2021/07/28 11:01:28;;;;;;;10.55;5.53;;;;;;;33.41;38.98;96741.30;1785768;78;27491;-92
2021/07/28 11:04:15;;;;;;;10.60;4.33;;;;;;;33.53;39.09;96745.28;1796650;77;25692;-89
2021/07/28 11:06:47;;;;;;;9.00;4.45;;;;;;;33.49;38.75;96743.02;1764052;80;26712;-88
2021/07/28 11:09:15;;;;;;;9.50;4.20;;;;;;;33.62;38.60;96742.42;1767989;80;25848;-87
2021/07/28 11:11:50;;;;;;;9.03;4.55;;;;;;;33.71;38.29;96744.94;1756362;80;25828;-87
2021/07/28 11:14:14;;;;;;;10.03;4.60;;;;;;;33.82;37.87;96744.53;1762201;80;27573;-87
2021/07/28 11:16:41;;;;;;;8.53;3.90;;;;;;;33.87;37.71;96750.41;1742677;80;25806;-88
2021/07/28 11:19:07;;;;;;;7.40;3.95;;;;;;;33.90;37.25;96751.86;1742254;80;25884;-87
2021/07/28 11:21:34;;;;;;;6.12;4.40;;;;;;;33.94;36.91;96747.09;1764070;80;25754;-86
2021/07/28 11:24:04;;;;;;;12.68;4.22;;;;;;;33.97;36.81;96746.34;1740924;80;25803;-86
2021/07/28 11:26:35;;;;;;;10.23;4.70;;;;;;;33.95;36.45;96747.91;1759172;80;27485;-91
2021/07/28 11:29:18;;;;;;;9.00;4.30;;;;;;;33.94;36.83;96752.70;1754636;80;25398;-89